createdAt,value
2023-03-23T15:58:22.686Z,19.37
2023-03-23T16:00:49.650Z,19.37
2023-03-23T16:03:25.275Z,19.35
2023-03-23T16:05:52.121Z,19.35
2023-03-23T16:08:19.195Z,19.33
2023-03-23T16:10:46.122Z,19.33
2023-03-23T16:13:13.220Z,19.33
2023-03-23T16:15:40.022Z,19.33
2023-03-23T16:18:07.226Z,19.32
2023-03-23T16:20:34.106Z,19.32
2023-03-23T16:23:01.189Z,19.32
2023-03-23T16:25:28.045Z,19.30
2023-03-23T16:27:55.130Z,19.29
2023-03-23T16:30:24.643Z,19.29
2023-03-23T16:32:52.001Z,19.28
2023-03-23T16:35:19.251Z,19.27
2023-03-23T16:37:51.669Z,19.26
2023-03-23T16:40:34.789Z,19.25
2023-03-23T16:43:01.979Z,19.23
2023-03-23T16:45:43.897Z,19.22
2023-03-23T16:48:11.425Z,19.20
2023-03-23T16:50:38.314Z,19.18
2023-03-23T16:53:06.684Z,19.18
2023-03-23T16:55:34.065Z,19.18
2023-03-23T16:58:15.507Z,19.16
2023-03-23T17:00:43.970Z,19.15
2023-03-23T17:03:11.472Z,19.14
2023-03-23T17:05:38.387Z,19.12
2023-03-23T17:08:06.053Z,19.10
2023-03-23T17:10:32.949Z,19.07
2023-03-23T17:13:00.250Z,19.08
2023-03-23T17:15:27.076Z,19.05
2023-03-23T17:17:55.389Z,19.03
2023-03-23T17:20:23.046Z,19.00
2023-03-23T17:22:50.397Z,18.98
2023-03-23T17:25:17.180Z,18.95
2023-03-23T17:27:44.336Z,18.93
2023-03-23T17:30:11.674Z,18.91
2023-03-23T17:32:39.153Z,18.87
2023-03-23T17:35:06.591Z,18.86
2023-03-23T17:37:34.003Z,18.81
2023-03-23T17:40:00.774Z,18.79
2023-03-23T17:42:28.005Z,18.75
2023-03-23T17:44:54.814Z,18.71
2023-03-23T17:47:22.276Z,18.70
2023-03-23T17:49:49.082Z,18.65
2023-03-23T17:52:16.166Z,18.61
2023-03-23T17:54:42.955Z,18.58
2023-03-23T17:57:10.496Z,18.55
2023-03-23T17:59:37.370Z,18.52
2023-03-23T18:02:04.512Z,18.51
2023-03-23T18:04:31.497Z,18.47
2023-03-23T18:06:58.678Z,18.43
2023-03-23T18:09:25.817Z,18.42
2023-03-23T18:11:53.148Z,18.38
2023-03-23T18:14:20.302Z,18.36
2023-03-23T18:16:47.717Z,18.31
2023-03-23T18:19:14.563Z,18.31
2023-03-23T18:21:42.539Z,18.27
2023-03-23T18:24:10.705Z,18.26
2023-03-23T18:26:38.069Z,18.23
2023-03-23T18:29:04.888Z,18.19
2023-03-23T18:31:32.917Z,18.17
2023-03-23T18:33:59.984Z,18.14
2023-03-23T18:36:27.392Z,18.13
2023-03-23T18:38:56.287Z,18.09
2023-03-23T18:41:23.602Z,18.05
2023-03-23T18:43:50.402Z,18.03
2023-03-23T18:46:17.646Z,18.03
2023-03-23T18:48:44.509Z,18.03
2023-03-23T18:51:11.668Z,17.98
2023-03-23T18:53:38.548Z,17.97
2023-03-23T18:56:08.448Z,17.96
2023-03-23T18:58:35.269Z,17.92
2023-03-23T19:01:04.234Z,17.90
2023-03-23T19:03:31.173Z,17.89
2023-03-23T19:05:59.630Z,17.85
2023-03-23T19:08:27.826Z,17.82
2023-03-23T19:11:01.010Z,17.78
2023-03-23T19:13:29.106Z,17.76
2023-03-23T19:15:56.422Z,17.75
2023-03-23T19:18:23.376Z,17.72
2023-03-23T19:23:21.732Z,17.69
2023-03-23T19:25:48.916Z,17.69
2023-03-23T19:30:46.902Z,17.67
2023-03-23T19:33:14.214Z,17.63
2023-03-23T19:35:41.526Z,17.61
2023-03-23T19:38:08.556Z,17.61
2023-03-23T19:40:42.137Z,17.58
2023-03-23T19:43:09.844Z,17.58
2023-03-23T19:45:37.227Z,17.56
2023-03-23T19:48:04.274Z,17.56
2023-03-23T19:50:33.354Z,17.55
2023-03-23T19:53:00.713Z,17.55
2023-03-23T19:55:27.970Z,17.54
2023-03-23T19:57:55.234Z,17.53
2023-03-23T20:00:24.474Z,17.52
2023-03-23T20:02:51.985Z,17.55
2023-03-23T20:05:19.155Z,17.54
2023-03-23T20:07:51.410Z,17.55
2023-03-23T20:10:19.014Z,17.53
2023-03-23T20:12:46.627Z,17.54
2023-03-23T20:15:13.969Z,17.53
2023-03-23T20:17:41.235Z,17.55
2023-03-23T20:20:10.487Z,17.55
2023-03-23T20:22:37.718Z,17.54
2023-03-23T20:25:05.407Z,17.55
2023-03-23T20:27:32.513Z,17.56
2023-03-23T20:29:59.680Z,17.55
2023-03-23T20:32:26.554Z,17.57
2023-03-23T20:34:53.716Z,17.56
2023-03-23T20:37:20.917Z,17.57
2023-03-23T20:39:48.862Z,17.57
2023-03-23T20:42:15.764Z,17.57
2023-03-23T20:44:42.981Z,17.56
2023-03-23T20:47:10.517Z,17.58
2023-03-23T20:49:38.380Z,17.58
2023-03-23T20:52:06.033Z,17.58
2023-03-23T20:54:33.341Z,17.58
2023-03-23T20:57:00.450Z,17.59
2023-03-23T20:59:27.902Z,17.59
2023-03-23T21:01:54.852Z,17.59
2023-03-23T21:04:23.431Z,17.60
2023-03-23T21:06:51.760Z,17.59
2023-03-23T21:09:19.424Z,17.58
2023-03-23T21:11:46.579Z,17.60
2023-03-23T21:14:13.737Z,17.60
2023-03-23T21:16:41.416Z,17.60
2023-03-23T21:19:09.120Z,17.60
2023-03-23T21:21:36.079Z,17.61
2023-03-23T21:24:03.391Z,17.59
2023-03-23T21:26:30.398Z,17.60
2023-03-23T21:29:00.063Z,17.58
2023-03-23T21:31:30.679Z,17.58
2023-03-23T21:33:58.523Z,17.58
2023-03-23T21:36:26.719Z,17.58
2023-03-23T21:38:53.934Z,17.59
2023-03-23T21:41:20.933Z,17.58
2023-03-23T21:43:48.145Z,17.57
2023-03-23T21:46:18.281Z,17.58
2023-03-23T21:48:51.444Z,17.58
2023-03-23T21:51:37.448Z,17.56
2023-03-23T21:54:04.618Z,17.56
2023-03-23T21:56:31.420Z,17.56
2023-03-23T21:58:58.599Z,17.56
2023-03-23T22:01:25.510Z,17.55
2023-03-23T22:03:52.756Z,17.55
2023-03-23T22:06:26.251Z,17.55
2023-03-23T22:08:53.774Z,17.54
2023-03-23T22:11:25.502Z,17.55
2023-03-23T22:13:53.813Z,17.53
2023-03-23T22:16:21.195Z,17.54
2023-03-23T22:18:48.751Z,17.53
2023-03-23T22:21:16.219Z,17.52
2023-03-23T22:23:44.123Z,17.52
2023-03-23T22:26:12.219Z,17.52
2023-03-23T22:28:39.901Z,17.52
2023-03-23T22:31:09.692Z,17.52
2023-03-23T22:33:37.112Z,17.50
2023-03-23T22:36:06.476Z,17.52
2023-03-23T22:38:34.764Z,17.52
2023-03-23T22:41:02.595Z,17.49
2023-03-23T22:43:29.761Z,17.49
2023-03-23T22:45:56.817Z,17.46
2023-03-23T22:48:24.894Z,17.47
2023-03-23T22:50:51.742Z,17.46
2023-03-23T22:53:18.995Z,17.46
2023-03-23T22:55:48.172Z,17.43
2023-03-23T22:58:15.567Z,17.44
2023-03-23T23:00:48.109Z,17.42
2023-03-23T23:03:16.465Z,17.43
2023-03-23T23:05:48.442Z,17.42
2023-03-23T23:08:17.729Z,17.42
2023-03-23T23:10:46.567Z,17.42
2023-03-23T23:13:14.069Z,17.42
2023-03-23T23:15:42.633Z,17.42
2023-03-23T23:18:10.316Z,17.41
2023-03-23T23:20:37.648Z,17.39
2023-03-23T23:23:05.072Z,17.40
2023-03-23T23:25:32.216Z,17.41
2023-03-23T23:28:00.896Z,17.41
2023-03-23T23:30:28.432Z,17.40
2023-03-23T23:32:56.773Z,17.40
2023-03-23T23:35:23.906Z,17.39
2023-03-23T23:37:51.022Z,17.38
2023-03-23T23:40:18.067Z,17.38
2023-03-23T23:42:46.848Z,17.39
2023-03-23T23:45:13.969Z,17.40
2023-03-23T23:47:41.812Z,17.39
2023-03-23T23:50:10.684Z,17.39
2023-03-23T23:52:38.060Z,17.39
2023-03-23T23:55:06.675Z,17.40
2023-03-23T23:57:34.049Z,17.38
